createdAt,value
2019-04-23T00:00:16.585Z,99.90
2019-04-23T00:03:03.396Z,99.90
2019-04-23T00:05:41.735Z,99.90
2019-04-23T00:08:13.195Z,99.90
2019-04-23T00:10:42.564Z,99.90
2019-04-23T00:13:24.775Z,99.90
2019-04-23T00:16:03.119Z,99.90
2019-04-23T00:18:42.300Z,99.90
2019-04-23T00:21:20.241Z,99.90
2019-04-23T00:23:57.101Z,99.90
2019-04-23T00:29:03.593Z,99.90
2019-04-23T00:31:46.407Z,99.90
2019-04-23T00:34:01.113Z,99.90
2019-04-23T00:36:57.880Z,99.90
2019-04-23T00:39:11.671Z,99.90
2019-04-23T00:41:48.189Z,99.90
2019-04-23T00:44:26.793Z,99.90
2019-04-23T00:46:48.967Z,99.90
2019-04-23T00:49:29.073Z,99.90
2019-04-23T00:52:04.342Z,99.90
2019-04-23T00:54:36.765Z,99.90
2019-04-23T00:57:09.069Z,99.90
2019-04-23T00:59:44.807Z,99.90
2019-04-23T01:02:16.565Z,99.90
2019-04-23T01:04:47.691Z,99.90
2019-04-23T01:07:22.864Z,99.90
2019-04-23T01:10:03.133Z,99.90
2019-04-23T01:12:38.059Z,99.90
2019-04-23T01:15:11.987Z,99.90
2019-04-23T01:20:29.216Z,99.90
2019-04-23T01:22:40.279Z,99.90
2019-04-23T01:25:24.440Z,99.90
2019-04-23T01:28:23.464Z,99.90
2019-04-23T01:30:57.104Z,99.90
2019-04-23T01:33:32.956Z,99.90
2019-04-23T01:36:19.855Z,99.90
2019-04-23T01:38:39.137Z,99.90
2019-04-23T01:41:13.384Z,99.90
2019-04-23T01:46:21.733Z,99.90
2019-04-23T01:48:51.969Z,99.90
2019-04-23T01:51:26.217Z,99.90
2019-04-23T01:53:58.733Z,99.90
2019-04-23T01:56:28.452Z,99.90
2019-04-23T02:01:46.142Z,99.90
2019-04-23T02:04:18.888Z,99.90
2019-04-23T02:06:51.738Z,99.90
2019-04-23T02:09:24.679Z,99.90
2019-04-23T02:11:59.178Z,99.90
2019-04-23T02:14:28.092Z,99.90
2019-04-23T02:17:05.965Z,99.90
2019-04-23T02:19:42.033Z,99.90
2019-04-23T02:22:27.977Z,99.90
2019-04-23T02:24:54.567Z,99.90
2019-04-23T02:27:29.635Z,99.90
2019-04-23T02:30:20.856Z,99.90
2019-04-23T02:32:42.130Z,99.90
2019-04-23T02:35:40.335Z,99.90
2019-04-23T02:40:30.566Z,99.90
2019-04-23T02:43:01.530Z,99.90
2019-04-23T02:45:26.754Z,99.90
2019-04-23T02:53:05.164Z,99.90
2019-04-23T02:55:42.743Z,99.90
2019-04-23T02:58:21.436Z,99.90
2019-04-23T03:01:06.440Z,99.90
2019-04-23T03:03:28.128Z,99.90
2019-04-23T03:05:57.365Z,99.90
2019-04-23T03:11:07.406Z,99.90
2019-04-23T03:19:24.193Z,99.90
2019-04-23T03:22:23.452Z,99.90
2019-04-23T03:25:10.901Z,99.90
2019-04-23T03:36:03.729Z,99.90
2019-04-23T03:40:34.990Z,99.90
2019-04-23T03:43:12.297Z,99.90
2019-04-23T03:45:54.085Z,99.90
2019-04-23T03:48:26.136Z,99.90
2019-04-23T03:50:43.476Z,99.90
2019-04-23T03:53:32.315Z,99.90
2019-04-23T04:01:05.097Z,99.90
2019-04-23T04:04:10.636Z,99.90
2019-04-23T04:06:48.115Z,99.90
2019-04-23T04:08:50.720Z,99.90
2019-04-23T04:11:19.237Z,99.90
2019-04-23T04:14:01.641Z,99.90
2019-04-23T04:16:28.379Z,99.90
2019-04-23T04:21:39.791Z,99.90
2019-04-23T04:24:17.273Z,99.90
2019-04-23T04:26:49.083Z,99.90
2019-04-23T04:29:20.972Z,99.90
2019-04-23T04:31:48.853Z,99.90
2019-04-23T04:34:43.720Z,99.90
2019-04-23T04:37:24.285Z,99.90
2019-04-23T04:39:37.736Z,99.90
2019-04-23T04:41:59.073Z,99.90
2019-04-23T04:47:15.468Z,99.90
2019-04-23T04:54:51.829Z,99.90
2019-04-23T04:57:32.659Z,99.90
2019-04-23T05:00:05.593Z,99.90
2019-04-23T05:05:20.689Z,99.90
2019-04-23T05:10:20.468Z,99.90
2019-04-23T05:12:40.935Z,99.90
2019-04-23T05:15:16.531Z,99.90
2019-04-23T05:20:48.330Z,99.90
2019-04-23T05:23:23.504Z,99.90
2019-04-23T05:25:51.440Z,96.60
2019-04-23T05:28:29.970Z,93.90
2019-04-23T05:31:03.460Z,92.20
2019-04-23T05:33:34.805Z,90.50
2019-04-23T05:38:50.807Z,82.30
2019-04-23T05:41:18.855Z,80.70
2019-04-23T05:43:46.819Z,79.30
2019-04-23T05:46:31.921Z,76.50
2019-04-23T05:49:01.002Z,74.70
2019-04-23T05:51:37.979Z,75.00
2019-04-23T05:59:11.553Z,74.40
2019-04-23T06:04:18.581Z,77.40
2019-04-23T06:07:11.354Z,83.10
2019-04-23T06:09:26.507Z,90.30
2019-04-23T06:14:32.850Z,96.00
2019-04-23T06:17:12.952Z,98.30
2019-04-23T06:19:36.789Z,99.90
2019-04-23T06:22:15.209Z,99.90
2019-04-23T06:24:45.172Z,99.90
2019-04-23T06:27:24.390Z,99.90
2019-04-23T06:29:51.499Z,99.90
2019-04-23T06:32:25.956Z,99.90
2019-04-23T06:34:56.668Z,99.90
2019-04-23T06:37:49.458Z,99.90
2019-04-23T06:40:08.233Z,99.90
2019-04-23T06:42:58.033Z,99.90
2019-04-23T06:45:32.187Z,99.90
2019-04-23T06:48:09.050Z,99.90
2019-04-23T06:50:43.267Z,99.90
2019-04-23T06:53:10.608Z,99.90
2019-04-23T06:55:49.562Z,99.90
2019-04-23T06:58:28.429Z,99.90
2019-04-23T07:00:58.707Z,99.90
2019-04-23T07:03:31.500Z,99.90
2019-04-23T07:06:16.811Z,99.90
2019-04-23T07:09:03.157Z,99.90
2019-04-23T07:11:23.758Z,99.90
2019-04-23T07:13:54.630Z,99.90
2019-04-23T07:16:33.007Z,99.90
2019-04-23T07:18:57.554Z,99.90
2019-04-23T07:24:07.129Z,99.90
2019-04-23T07:31:50.125Z,99.90
2019-04-23T07:34:13.684Z,99.90
2019-04-23T07:37:06.111Z,99.90
2019-04-23T07:40:11.013Z,99.90
2019-04-23T07:42:39.097Z,99.90
2019-04-23T07:45:22.317Z,99.90
2019-04-23T07:48:13.261Z,99.90
2019-04-23T07:50:52.038Z,99.90
2019-04-23T07:53:18.132Z,99.90
2019-04-23T07:55:56.897Z,99.90
2019-04-23T07:58:25.747Z,99.90
2019-04-23T08:03:36.546Z,99.90
2019-04-23T08:06:05.866Z,99.90
2019-04-23T08:08:42.899Z,99.90
2019-04-23T08:13:58.711Z,99.90
2019-04-23T08:21:43.850Z,99.90
2019-04-23T08:24:41.967Z,99.90
2019-04-23T08:27:16.399Z,99.90
2019-04-23T08:29:41.066Z,99.90
2019-04-23T08:32:21.437Z,99.90
2019-04-23T08:34:58.785Z,99.90
2019-04-23T08:37:33.704Z,99.90
2019-04-23T08:42:45.336Z,99.90
2019-04-23T08:48:27.903Z,99.90
2019-04-23T08:50:57.791Z,99.90
2019-04-23T08:56:05.017Z,99.90
2019-04-23T08:58:41.476Z,99.90
2019-04-23T09:01:20.056Z,99.90
2019-04-23T09:03:45.760Z,99.90
2019-04-23T09:06:22.162Z,99.90
2019-04-23T09:08:56.864Z,99.90
2019-04-23T09:11:41.691Z,99.90
2019-04-23T09:13:59.584Z,99.90
2019-04-23T09:16:46.812Z,99.90
2019-04-23T09:19:19.107Z,99.90
2019-04-23T09:21:49.828Z,99.90
2019-04-23T09:24:21.579Z,99.90
2019-04-23T09:27:03.964Z,99.90
2019-04-23T09:29:39.343Z,99.90
2019-04-23T09:32:24.054Z,99.90
2019-04-23T09:35:05.992Z,99.90
2019-04-23T09:37:40.571Z,99.90
2019-04-23T09:40:36.194Z,99.90
2019-04-23T09:43:07.013Z,99.90
2019-04-23T09:46:08.462Z,99.90
2019-04-23T09:48:41.612Z,99.90
2019-04-23T09:51:10.337Z,99.90
2019-04-23T09:53:40.025Z,99.90
2019-04-23T09:56:15.638Z,99.90
2019-04-23T09:58:53.998Z,99.90
2019-04-23T10:01:25.777Z,99.90
2019-04-23T10:03:50.842Z,99.90
2019-04-23T10:06:18.216Z,99.90
2019-04-23T10:08:52.218Z,99.90
2019-04-23T10:11:19.999Z,99.90
2019-04-23T10:13:52.857Z,99.90
2019-04-23T10:16:30.903Z,99.90
2019-04-23T10:19:01.175Z,99.90
2019-04-23T10:21:33.421Z,99.90
2019-04-23T10:24:07.635Z,99.90
2019-04-23T10:26:39.910Z,99.90
2019-04-23T10:29:16.134Z,99.90
2019-04-23T10:31:49.255Z,99.90
2019-04-23T10:34:21.146Z,99.90
2019-04-23T10:36:53.631Z,99.90
2019-04-23T10:39:32.404Z,99.90
2019-04-23T10:42:01.826Z,99.90
2019-04-23T10:44:45.761Z,99.90
2019-04-23T10:48:12.262Z,99.90
2019-04-23T10:50:47.631Z,99.90
2019-04-23T10:55:56.244Z,99.90
2019-04-23T10:58:31.768Z,99.90
2019-04-23T11:08:38.640Z,99.90
2019-04-23T11:11:14.701Z,99.90
2019-04-23T11:13:53.455Z,99.90
2019-04-23T11:16:45.994Z,99.90
2019-04-23T11:19:11.285Z,99.90
2019-04-23T11:21:34.115Z,99.90
2019-04-23T11:24:11.807Z,99.90
2019-04-23T11:29:20.933Z,99.90
2019-04-23T11:31:52.709Z,99.90
2019-04-23T11:34:36.568Z,99.90
2019-04-23T11:39:31.091Z,99.90
2019-04-23T11:44:49.983Z,99.90
2019-04-23T11:47:23.189Z,99.90
2019-04-23T11:49:53.417Z,99.90
2019-04-23T11:52:17.790Z,99.90
2019-04-23T11:54:43.484Z,99.90
2019-04-23T12:02:57.947Z,99.90
2019-04-23T12:06:11.546Z,99.90
2019-04-23T12:08:57.203Z,99.90
2019-04-23T12:14:32.738Z,99.90
2019-04-23T12:25:03.628Z,99.90
2019-04-23T12:27:23.271Z,99.90
2019-04-23T12:29:52.704Z,99.90
2019-04-23T12:32:41.815Z,99.90
2019-04-23T12:37:40.700Z,99.90
2019-04-23T12:45:27.100Z,96.70
2019-04-23T12:53:05.830Z,99.90
2019-04-23T12:55:41.770Z,99.90
2019-04-23T12:58:14.660Z,98.90
2019-04-23T13:00:38.911Z,98.20
2019-04-23T13:05:44.977Z,99.80
2019-04-23T13:08:33.724Z,99.90
2019-04-23T13:10:59.349Z,99.90
2019-04-23T13:13:37.482Z,99.90
2019-04-23T13:16:25.258Z,99.90
2019-04-23T13:21:41.388Z,99.90
2019-04-23T13:23:48.891Z,99.90
2019-04-23T13:26:23.581Z,99.90
2019-04-23T13:29:11.869Z,99.90
2019-04-23T13:31:36.379Z,99.90
2019-04-23T13:34:14.281Z,99.90
2019-04-23T13:36:45.377Z,99.90
2019-04-23T13:42:01.253Z,99.70
2019-04-23T13:44:25.706Z,99.90
2019-04-23T13:47:00.744Z,99.80
2019-04-23T13:49:34.942Z,99.90
2019-04-23T13:52:26.490Z,99.90
2019-04-23T13:55:04.311Z,99.90
2019-04-23T13:57:46.416Z,99.90
2019-04-23T14:02:34.515Z,99.90
2019-04-23T14:05:17.647Z,99.90
2019-04-23T14:10:29.208Z,99.90
2019-04-23T14:15:42.780Z,99.90
2019-04-23T14:18:29.062Z,99.90
2019-04-23T14:20:45.086Z,99.90
2019-04-23T14:23:27.352Z,99.90
2019-04-23T14:26:13.041Z,99.90
2019-04-23T14:28:29.084Z,99.90
2019-04-23T14:33:47.092Z,99.90
2019-04-23T14:36:07.682Z,99.90
2019-04-23T14:43:57.786Z,99.90
2019-04-23T14:48:56.742Z,98.50
2019-04-23T14:51:39.112Z,99.00
2019-04-23T14:54:08.442Z,99.60
2019-04-23T14:56:46.313Z,99.90
2019-04-23T14:59:19.861Z,99.90
2019-04-23T15:01:49.803Z,99.90
2019-04-23T15:04:19.272Z,99.90
2019-04-23T15:07:00.880Z,99.90
2019-04-23T15:09:43.854Z,99.90
2019-04-23T15:12:11.812Z,99.90
2019-04-23T15:14:46.006Z,99.90
2019-04-23T15:17:13.109Z,99.90
2019-04-23T15:19:52.335Z,99.90
2019-04-23T15:22:25.018Z,99.90
2019-04-23T15:25:06.917Z,99.90
2019-04-23T15:28:03.949Z,99.90
2019-04-23T15:29:51.179Z,99.70
2019-04-23T15:32:46.821Z,99.40
2019-04-23T15:35:31.512Z,99.10
2019-04-23T15:38:14.169Z,99.90
2019-04-23T15:40:23.389Z,99.90
2019-04-23T15:42:58.138Z,99.90
2019-04-23T15:45:21.421Z,99.90
2019-04-23T15:48:03.258Z,99.90
2019-04-23T15:50:41.037Z,99.90
2019-04-23T15:53:01.422Z,99.90
2019-04-23T15:55:44.391Z,99.90
2019-04-23T15:58:14.303Z,99.90
2019-04-23T16:01:15.364Z,99.90
2019-04-23T16:03:15.592Z,99.90
2019-04-23T16:05:48.764Z,99.90
2019-04-23T16:08:59.411Z,99.90
2019-04-23T16:14:16.767Z,99.90
2019-04-23T16:19:24.453Z,99.90
2019-04-23T16:22:07.351Z,99.90
2019-04-23T16:24:24.851Z,99.90
2019-04-23T16:27:07.226Z,98.00
2019-04-23T16:29:55.445Z,99.50
2019-04-23T16:32:21.035Z,99.90
2019-04-23T16:34:54.144Z,99.90
2019-04-23T16:37:26.863Z,99.90
2019-04-23T16:40:08.083Z,99.90
2019-04-23T16:42:58.148Z,99.90
2019-04-23T16:45:15.197Z,99.90
2019-04-23T16:47:48.445Z,99.90
2019-04-23T16:52:51.852Z,99.90
2019-04-23T16:55:24.126Z,99.90
2019-04-23T16:58:01.623Z,99.90
2019-04-23T17:00:33.500Z,99.90
2019-04-23T17:03:28.197Z,99.90
2019-04-23T17:08:37.405Z,99.90
2019-04-23T17:11:00.356Z,99.90
2019-04-23T17:13:24.087Z,99.90
2019-04-23T17:18:33.210Z,99.90
2019-04-23T17:21:01.938Z,99.90
2019-04-23T17:28:46.437Z,99.90
2019-04-23T17:37:03.267Z,99.90
2019-04-23T17:40:06.787Z,99.90
2019-04-23T17:42:55.511Z,99.90
2019-04-23T17:48:21.703Z,99.90
2019-04-23T17:51:08.091Z,99.90
2019-04-23T17:56:20.062Z,99.90
2019-04-23T17:58:44.021Z,99.90
2019-04-23T18:04:05.928Z,99.90
2019-04-23T18:06:37.909Z,99.90
2019-04-23T18:09:16.737Z,99.90
2019-04-23T18:11:35.779Z,99.90
2019-04-23T18:14:08.441Z,99.90
2019-04-23T18:19:16.916Z,99.90
2019-04-23T18:22:29.527Z,99.90
2019-04-23T18:25:08.506Z,99.90
2019-04-23T18:27:48.270Z,99.90
2019-04-23T18:30:33.634Z,99.90
2019-04-23T18:35:49.534Z,99.90
2019-04-23T18:38:33.081Z,99.90
2019-04-23T18:43:38.937Z,99.90
2019-04-23T18:46:14.966Z,99.90
2019-04-23T18:51:14.571Z,99.90
2019-04-23T18:53:48.490Z,99.90
2019-04-23T18:56:53.443Z,99.90
2019-04-23T18:59:02.414Z,99.90
2019-04-23T19:01:31.066Z,99.90
2019-04-23T19:07:16.711Z,99.90
2019-04-23T19:13:01.993Z,99.90
2019-04-23T19:15:36.545Z,99.90
2019-04-23T19:17:56.589Z,99.90
2019-04-23T19:23:16.390Z,99.90
2019-04-23T19:28:38.365Z,99.90
2019-04-23T19:34:17.537Z,99.90
2019-04-23T19:36:51.269Z,99.90
2019-04-23T19:39:17.323Z,99.90
2019-04-23T19:41:56.623Z,99.90
2019-04-23T19:47:06.555Z,99.90
2019-04-23T19:51:59.719Z,99.90
2019-04-23T19:57:13.617Z,99.90
2019-04-23T20:02:17.287Z,99.90
2019-04-23T20:04:46.159Z,99.90
2019-04-23T20:09:51.563Z,99.90
2019-04-23T20:12:26.876Z,99.90
2019-04-23T20:15:04.632Z,99.90
2019-04-23T20:17:52.329Z,99.90
2019-04-23T20:20:12.456Z,99.90
2019-04-23T20:22:48.529Z,99.90
2019-04-23T20:30:54.038Z,99.90
2019-04-23T20:32:26.647Z,99.90
2019-04-23T20:36:07.026Z,99.90
2019-04-23T20:43:52.175Z,99.90
2019-04-23T20:49:00.853Z,99.90
2019-04-23T20:51:18.740Z,99.90
2019-04-23T20:53:57.305Z,99.90
2019-04-23T20:59:03.325Z,99.90
2019-04-23T21:01:50.002Z,99.90
2019-04-23T21:04:11.332Z,99.90
2019-04-23T21:12:04.788Z,99.90
2019-04-23T21:15:03.062Z,99.90
2019-04-23T21:17:04.162Z,99.90
2019-04-23T21:19:39.490Z,99.90
2019-04-23T21:24:45.843Z,99.90
2019-04-23T21:27:45.005Z,99.90
2019-04-23T21:30:43.049Z,99.90
2019-04-23T21:33:10.546Z,99.90
2019-04-23T21:36:12.640Z,99.90
2019-04-23T21:38:46.316Z,99.90
2019-04-23T21:41:41.916Z,99.90
2019-04-23T21:44:10.518Z,99.90
2019-04-23T21:46:40.229Z,99.90
2019-04-23T21:54:04.912Z,99.90
2019-04-23T21:56:50.043Z,99.90
2019-04-23T21:59:10.527Z,99.90
2019-04-23T22:01:54.191Z,99.90
2019-04-23T22:04:44.994Z,99.90
2019-04-23T22:07:02.889Z,99.90
2019-04-23T22:09:43.796Z,99.90
2019-04-23T22:14:46.980Z,99.90
2019-04-23T22:20:06.015Z,99.90
2019-04-23T22:22:32.119Z,99.90
2019-04-23T22:24:57.520Z,99.90
2019-04-23T22:27:32.656Z,99.90
2019-04-23T22:30:04.945Z,99.90
2019-04-23T22:32:56.158Z,99.90
2019-04-23T22:35:16.345Z,99.90
2019-04-23T22:37:58.926Z,99.90
2019-04-23T22:40:18.575Z,99.90
2019-04-23T22:45:40.692Z,99.90
2019-04-23T22:50:47.316Z,99.90
2019-04-23T22:55:57.341Z,99.90
2019-04-23T22:58:41.579Z,99.90
2019-04-23T23:01:20.060Z,99.90
2019-04-23T23:04:04.604Z,99.90
2019-04-23T23:06:53.642Z,99.90
2019-04-23T23:09:18.980Z,99.90
2019-04-23T23:11:49.387Z,99.90
2019-04-23T23:16:51.051Z,99.90
2019-04-23T23:19:31.079Z,99.90
2019-04-23T23:22:01.962Z,99.90
2019-04-23T23:24:41.143Z,99.90
2019-04-23T23:29:53.413Z,99.90
2019-04-23T23:32:16.334Z,99.90
2019-04-23T23:35:04.331Z,99.90
2019-04-23T23:37:35.345Z,99.90
2019-04-23T23:40:00.319Z,99.90
2019-04-23T23:42:34.645Z,99.90
2019-04-23T23:45:10.272Z,99.90
2019-04-23T23:47:30.086Z,99.90
2019-04-23T23:50:17.801Z,99.90
2019-04-23T23:52:50.033Z,99.90
2019-04-23T23:55:16.710Z,99.90
2019-04-23T23:57:51.015Z,99.90
